sensor_id;sensor_type;location;lat;lon;timestamp;P1;durP1;ratioP1;P2;durP2;ratioP2
55190;SDS011;41070;50.360;18.742;2023-02-28T18:14:51;64.00;;;28.50;;
55190;SDS011;41070;50.360;18.742;2023-02-28T18:17:19;65.30;;;30.60;;
55190;SDS011;41070;50.360;18.742;2023-02-28T18:19:49;73.10;;;32.50;;
55190;SDS011;41070;50.360;18.742;2023-02-28T18:22:25;78.70;;;34.60;;
55190;SDS011;41070;50.360;18.742;2023-02-28T18:27:48;67.20;;;33.00;;
55190;SDS011;41070;50.360;18.742;2023-02-28T18:30:55;67.50;;;32.70;;
55190;SDS011;41070;50.360;18.742;2023-02-28T18:33:33;61.90;;;29.10;;
55190;SDS011;41070;50.360;18.742;2023-02-28T18:36:28;54.00;;;27.40;;
55190;SDS011;41070;50.360;18.742;2023-02-28T18:38:56;61.40;;;29.40;;
55190;SDS011;41070;50.360;18.742;2023-02-28T18:41:24;52.80;;;27.40;;
55190;SDS011;41070;50.360;18.742;2023-02-28T18:43:55;62.40;;;29.70;;
55190;SDS011;41070;50.360;18.742;2023-02-28T18:46:24;55.10;;;28.20;;
55190;SDS011;41070;50.360;18.742;2023-02-28T18:48:51;59.80;;;30.00;;
55190;SDS011;41070;50.360;18.742;2023-02-28T18:51:20;57.00;;;29.40;;
55190;SDS011;41070;50.360;18.742;2023-02-28T18:53:51;53.40;;;28.30;;
55190;SDS011;41070;50.360;18.742;2023-02-28T18:56:20;52.10;;;27.60;;
55190;SDS011;41070;50.360;18.742;2023-02-28T18:58:49;66.20;;;31.60;;
55190;SDS011;41070;50.360;18.742;2023-02-28T19:01:31;54.60;;;27.60;;
55190;SDS011;41070;50.360;18.742;2023-02-28T19:04:01;54.50;;;24.80;;
55190;SDS011;41070;50.360;18.742;2023-02-28T19:06:29;56.70;;;27.40;;
55190;SDS011;41070;50.360;18.742;2023-02-28T19:08:58;51.30;;;24.90;;
55190;SDS011;41070;50.360;18.742;2023-02-28T19:11:26;58.10;;;27.30;;
55190;SDS011;41070;50.360;18.742;2023-02-28T19:13:53;53.30;;;26.80;;
55190;SDS011;41070;50.360;18.742;2023-02-28T19:16:33;55.80;;;28.60;;
55190;SDS011;41070;50.360;18.742;2023-02-28T19:19:00;60.40;;;28.60;;
55190;SDS011;41070;50.360;18.742;2023-02-28T19:21:27;68.50;;;30.40;;
55190;SDS011;41070;50.360;18.742;2023-02-28T19:23:53;68.30;;;30.90;;
55190;SDS011;41070;50.360;18.742;2023-02-28T19:26:21;62.30;;;29.00;;
55190;SDS011;41070;50.360;18.742;2023-02-28T19:28:52;62.40;;;29.70;;
55190;SDS011;41070;50.360;18.742;2023-02-28T19:31:23;79.10;;;35.10;;
55190;SDS011;41070;50.360;18.742;2023-02-28T19:33:53;69.30;;;30.00;;
55190;SDS011;41070;50.360;18.742;2023-02-28T19:36:20;60.70;;;26.40;;
55190;SDS011;41070;50.360;18.742;2023-02-28T19:38:50;65.30;;;27.40;;
55190;SDS011;41070;50.360;18.742;2023-02-28T19:41:17;68.80;;;30.60;;
55190;SDS011;41070;50.360;18.742;2023-02-28T19:43:45;69.80;;;31.30;;
55190;SDS011;41070;50.360;18.742;2023-02-28T19:46:12;63.00;;;30.00;;
55190;SDS011;41070;50.360;18.742;2023-02-28T19:48:39;77.70;;;31.30;;
55190;SDS011;41070;50.360;18.742;2023-02-28T19:51:08;78.70;;;33.90;;
55190;SDS011;41070;50.360;18.742;2023-02-28T19:53:37;98.10;;;37.80;;
55190;SDS011;41070;50.360;18.742;2023-02-28T19:56:06;82.10;;;35.80;;
55190;SDS011;41070;50.360;18.742;2023-02-28T19:58:34;104.90;;;43.50;;
55190;SDS011;41070;50.360;18.742;2023-02-28T20:01:05;126.20;;;51.80;;
55190;SDS011;41070;50.360;18.742;2023-02-28T20:03:36;115.80;;;46.80;;
55190;SDS011;41070;50.360;18.742;2023-02-28T20:06:05;107.40;;;45.10;;
55190;SDS011;41070;50.360;18.742;2023-02-28T20:08:36;117.50;;;45.80;;
55190;SDS011;41070;50.360;18.742;2023-02-28T20:11:05;131.50;;;50.30;;
55190;SDS011;41070;50.360;18.742;2023-02-28T20:13:41;140.60;;;48.20;;
55190;SDS011;41070;50.360;18.742;2023-02-28T20:16:09;222.40;;;70.60;;
55190;SDS011;41070;50.360;18.742;2023-02-28T20:18:38;253.60;;;77.50;;
55190;SDS011;41070;50.360;18.742;2023-02-28T20:21:08;177.70;;;58.70;;
55190;SDS011;41070;50.360;18.742;2023-02-28T20:23:39;231.30;;;71.90;;
55190;SDS011;41070;50.360;18.742;2023-02-28T20:26:22;192.60;;;59.20;;
55190;SDS011;41070;50.360;18.742;2023-02-28T20:28:49;138.40;;;50.40;;
55190;SDS011;41070;50.360;18.742;2023-02-28T20:33:44;94.90;;;34.70;;
55190;SDS011;41070;50.360;18.742;2023-02-28T20:36:10;83.60;;;33.70;;
55190;SDS011;41070;50.360;18.742;2023-02-28T20:41:04;78.60;;;34.20;;
55190;SDS011;41070;50.360;18.742;2023-02-28T20:43:31;74.30;;;34.40;;
55190;SDS011;41070;50.360;18.742;2023-02-28T20:45:58;78.00;;;35.90;;
55190;SDS011;41070;50.360;18.742;2023-02-28T20:48:26;75.30;;;33.30;;
55190;SDS011;41070;50.360;18.742;2023-02-28T20:50:54;84.50;;;36.80;;
55190;SDS011;41070;50.360;18.742;2023-02-28T20:53:22;84.40;;;35.20;;
55190;SDS011;41070;50.360;18.742;2023-02-28T20:55:55;99.30;;;41.00;;
55190;SDS011;41070;50.360;18.742;2023-02-28T20:58:23;130.20;;;47.60;;
55190;SDS011;41070;50.360;18.742;2023-02-28T21:03:41;112.10;;;43.80;;
55190;SDS011;41070;50.360;18.742;2023-02-28T21:06:08;103.90;;;41.90;;
55190;SDS011;41070;50.360;18.742;2023-02-28T21:08:35;98.20;;;40.10;;
55190;SDS011;41070;50.360;18.742;2023-02-28T21:11:05;97.80;;;40.30;;
55190;SDS011;41070;50.360;18.742;2023-02-28T21:13:35;113.90;;;45.20;;
55190;SDS011;41070;50.360;18.742;2023-02-28T21:16:03;113.60;;;45.10;;
55190;SDS011;41070;50.360;18.742;2023-02-28T21:18:32;136.60;;;49.70;;
55190;SDS011;41070;50.360;18.742;2023-02-28T21:21:00;132.70;;;49.60;;
55190;SDS011;41070;50.360;18.742;2023-02-28T21:23:27;117.10;;;47.20;;
55190;SDS011;41070;50.360;18.742;2023-02-28T21:28:20;160.50;;;53.50;;
55190;SDS011;41070;50.360;18.742;2023-02-28T21:30:47;146.00;;;52.30;;
55190;SDS011;41070;50.360;18.742;2023-02-28T21:33:13;148.30;;;55.40;;
55190;SDS011;41070;50.360;18.742;2023-02-28T21:35:39;142.70;;;55.20;;
55190;SDS011;41070;50.360;18.742;2023-02-28T21:38:06;167.70;;;56.30;;
55190;SDS011;41070;50.360;18.742;2023-02-28T21:40:32;162.70;;;60.60;;
55190;SDS011;41070;50.360;18.742;2023-02-28T21:42:59;188.10;;;66.40;;
55190;SDS011;41070;50.360;18.742;2023-02-28T21:45:25;172.10;;;56.20;;
55190;SDS011;41070;50.360;18.742;2023-02-28T21:47:53;151.10;;;53.00;;
55190;SDS011;41070;50.360;18.742;2023-02-28T21:50:20;153.80;;;53.80;;
55190;SDS011;41070;50.360;18.742;2023-02-28T21:52:47;153.00;;;52.30;;
55190;SDS011;41070;50.360;18.742;2023-02-28T21:55:13;138.40;;;52.40;;
55190;SDS011;41070;50.360;18.742;2023-02-28T21:57:39;136.60;;;46.80;;
55190;SDS011;41070;50.360;18.742;2023-02-28T22:00:07;126.50;;;47.80;;
55190;SDS011;41070;50.360;18.742;2023-02-28T22:02:36;120.80;;;46.60;;
55190;SDS011;41070;50.360;18.742;2023-02-28T22:05:02;105.50;;;41.40;;
55190;SDS011;41070;50.360;18.742;2023-02-28T22:09:55;134.80;;;49.60;;
55190;SDS011;41070;50.360;18.742;2023-02-28T22:12:21;129.80;;;49.30;;
55190;SDS011;41070;50.360;18.742;2023-02-28T22:14:48;116.30;;;44.50;;
55190;SDS011;41070;50.360;18.742;2023-02-28T22:17:14;115.00;;;45.50;;
55190;SDS011;41070;50.360;18.742;2023-02-28T22:19:40;144.90;;;54.50;;
55190;SDS011;41070;50.360;18.742;2023-02-28T22:24:33;105.70;;;37.50;;
55190;SDS011;41070;50.360;18.742;2023-02-28T22:26:59;125.70;;;49.40;;
55190;SDS011;41070;50.360;18.742;2023-02-28T22:29:25;104.30;;;39.70;;
55190;SDS011;41070;50.360;18.742;2023-02-28T22:31:52;121.30;;;42.30;;
55190;SDS011;41070;50.360;18.742;2023-02-28T22:34:18;113.20;;;42.00;;
55190;SDS011;41070;50.360;18.742;2023-02-28T22:36:45;99.90;;;41.40;;
55190;SDS011;41070;50.360;18.742;2023-02-28T22:39:11;124.20;;;46.40;;
55190;SDS011;41070;50.360;18.742;2023-02-28T22:41:38;138.00;;;53.50;;
55190;SDS011;41070;50.360;18.742;2023-02-28T22:44:06;105.20;;;42.70;;
55190;SDS011;41070;50.360;18.742;2023-02-28T22:46:33;127.40;;;48.10;;
55190;SDS011;41070;50.360;18.742;2023-02-28T22:49:00;139.80;;;52.00;;
55190;SDS011;41070;50.360;18.742;2023-02-28T22:51:28;134.20;;;52.40;;
55190;SDS011;41070;50.360;18.742;2023-02-28T22:53:56;132.20;;;50.60;;
55190;SDS011;41070;50.360;18.742;2023-02-28T22:56:23;140.20;;;51.80;;
55190;SDS011;41070;50.360;18.742;2023-02-28T22:58:53;101.40;;;38.60;;
55190;SDS011;41070;50.360;18.742;2023-02-28T23:01:21;109.90;;;39.40;;
55190;SDS011;41070;50.360;18.742;2023-02-28T23:03:49;112.60;;;42.30;;
55190;SDS011;41070;50.360;18.742;2023-02-28T23:06:24;94.10;;;37.40;;
55190;SDS011;41070;50.360;18.742;2023-02-28T23:08:56;90.80;;;34.10;;
55190;SDS011;41070;50.360;18.742;2023-02-28T23:11:27;80.20;;;31.60;;
55190;SDS011;41070;50.360;18.742;2023-02-28T23:13:55;94.10;;;35.50;;
55190;SDS011;41070;50.360;18.742;2023-02-28T23:16:25;77.50;;;32.10;;
55190;SDS011;41070;50.360;18.742;2023-02-28T23:18:58;90.50;;;34.20;;
55190;SDS011;41070;50.360;18.742;2023-02-28T23:21:26;85.20;;;32.50;;
55190;SDS011;41070;50.360;18.742;2023-02-28T23:23:53;84.50;;;32.70;;
55190;SDS011;41070;50.360;18.742;2023-02-28T23:26:20;70.50;;;29.20;;
55190;SDS011;41070;50.360;18.742;2023-02-28T23:28:50;74.70;;;28.10;;
55190;SDS011;41070;50.360;18.742;2023-02-28T23:31:16;63.70;;;25.70;;
55190;SDS011;41070;50.360;18.742;2023-02-28T23:33:43;51.00;;;23.20;;
55190;SDS011;41070;50.360;18.742;2023-02-28T23:36:12;55.20;;;24.20;;
55190;SDS011;41070;50.360;18.742;2023-02-28T23:38:42;57.30;;;22.10;;
55190;SDS011;41070;50.360;18.742;2023-02-28T23:41:12;58.90;;;23.10;;
55190;SDS011;41070;50.360;18.742;2023-02-28T23:43:39;50.70;;;23.00;;
55190;SDS011;41070;50.360;18.742;2023-02-28T23:46:05;49.00;;;24.10;;
55190;SDS011;41070;50.360;18.742;2023-02-28T23:48:33;54.60;;;22.60;;
55190;SDS011;41070;50.360;18.742;2023-02-28T23:51:00;55.70;;;20.30;;
55190;SDS011;41070;50.360;18.742;2023-02-28T23:53:33;51.50;;;22.10;;
55190;SDS011;41070;50.360;18.742;2023-02-28T23:56:00;48.90;;;21.40;;
55190;SDS011;41070;50.360;18.742;2023-02-28T23:58:27;38.30;;;18.60;;
